createdAt,value
2023-04-06T00:02:12.044Z,5.60
2023-04-06T00:04:40.190Z,5.13
2023-04-06T00:07:09.659Z,5.97
2023-04-06T00:09:37.682Z,5.03
2023-04-06T00:12:05.913Z,4.80
2023-04-06T00:14:33.988Z,5.90
2023-04-06T00:17:02.578Z,7.37
2023-04-06T00:19:30.720Z,4.63
2023-04-06T00:21:58.804Z,5.33
2023-04-06T00:24:28.291Z,4.93
2023-04-06T00:26:56.279Z,5.13
2023-04-06T00:29:24.416Z,5.97
2023-04-06T00:31:52.505Z,5.43
2023-04-06T00:34:20.655Z,5.57
2023-04-06T00:36:48.757Z,6.23
2023-04-06T00:39:18.460Z,4.97
2023-04-06T00:41:52.817Z,6.17
2023-04-06T00:44:21.607Z,5.43
2023-04-06T00:46:49.767Z,6.93
2023-04-06T00:49:19.079Z,4.67
2023-04-06T00:51:47.363Z,4.30
2023-04-06T00:54:17.119Z,6.10
2023-04-06T00:56:46.080Z,5.00
2023-04-06T00:59:15.734Z,6.23
2023-04-06T01:01:43.941Z,5.17
2023-04-06T01:04:28.330Z,5.97
2023-04-06T01:06:57.273Z,8.63
2023-04-06T01:09:31.994Z,5.00
2023-04-06T01:12:04.289Z,4.87
2023-04-06T01:14:35.612Z,6.20
2023-04-06T01:17:03.799Z,6.13
2023-04-06T01:19:34.384Z,8.17
2023-04-06T01:22:02.902Z,4.67
2023-04-06T01:24:35.298Z,4.80
2023-04-06T01:27:28.830Z,4.63
2023-04-06T01:30:14.193Z,4.67
2023-04-06T01:32:47.998Z,5.30
2023-04-06T01:35:20.365Z,5.97
2023-04-06T01:37:59.044Z,6.27
2023-04-06T01:40:33.674Z,4.83
2023-04-06T01:43:02.086Z,7.83
2023-04-06T01:45:39.666Z,5.77
2023-04-06T01:48:17.287Z,4.97
2023-04-06T01:50:45.632Z,7.73
2023-04-06T01:53:18.060Z,7.37
2023-04-06T01:55:48.789Z,6.70
2023-04-06T01:58:39.621Z,7.00
2023-04-06T02:01:08.294Z,5.77
2023-04-06T02:03:51.202Z,6.23
2023-04-06T02:06:19.966Z,5.73
2023-04-06T02:08:48.223Z,4.63
2023-04-06T02:11:17.769Z,4.60
2023-04-06T02:13:50.097Z,5.07
2023-04-06T02:16:19.095Z,5.20
2023-04-06T02:18:48.136Z,5.50
2023-04-06T02:21:20.901Z,5.20
2023-04-06T02:23:50.333Z,9.43
2023-04-06T02:26:21.145Z,5.97
2023-04-06T02:28:49.886Z,6.20
2023-04-06T02:31:18.030Z,5.93
2023-04-06T02:33:46.780Z,5.30
2023-04-06T02:36:17.313Z,4.90
2023-04-06T02:38:45.394Z,6.33
2023-04-06T02:41:13.717Z,6.10
2023-04-06T02:43:43.227Z,7.03
2023-04-06T02:46:26.602Z,5.70
2023-04-06T02:48:55.032Z,6.87
2023-04-06T02:51:23.194Z,6.80
2023-04-06T02:53:56.395Z,6.33
2023-04-06T02:56:24.730Z,6.33
2023-04-06T02:58:55.060Z,6.13
2023-04-06T03:01:28.066Z,6.20
2023-04-06T03:04:00.571Z,7.03
2023-04-06T03:06:31.318Z,8.33
2023-04-06T03:09:06.360Z,6.20
2023-04-06T03:11:35.541Z,6.63
2023-04-06T03:14:05.450Z,6.67
2023-04-06T03:16:33.547Z,6.03
2023-04-06T03:19:03.339Z,7.27
2023-04-06T03:21:34.840Z,7.60
2023-04-06T03:24:06.021Z,5.87
2023-04-06T03:26:34.233Z,6.77
2023-04-06T03:29:08.368Z,8.23
2023-04-06T03:31:37.341Z,6.77
2023-04-06T03:34:09.362Z,7.70
2023-04-06T03:36:38.340Z,6.43
2023-04-06T03:39:07.146Z,8.07
2023-04-06T03:41:39.373Z,6.83
2023-04-06T03:44:30.559Z,9.27
2023-04-06T03:47:01.879Z,7.80
2023-04-06T03:49:30.017Z,6.70
2023-04-06T03:51:59.410Z,11.53
2023-04-06T03:54:27.607Z,6.63
2023-04-06T03:56:56.047Z,8.30
2023-04-06T03:59:24.221Z,6.77
2023-04-06T04:01:56.338Z,10.37
2023-04-06T04:04:25.207Z,11.40
2023-04-06T04:06:53.381Z,9.13
2023-04-06T04:09:21.536Z,8.40
2023-04-06T04:11:49.700Z,10.97
2023-04-06T04:14:17.758Z,6.27
2023-04-06T04:16:46.913Z,6.83
2023-04-06T04:19:16.407Z,8.13
2023-04-06T04:21:46.473Z,7.27
2023-04-06T04:24:18.288Z,7.30
2023-04-06T04:26:46.354Z,8.83
2023-04-06T04:29:14.527Z,7.17
2023-04-06T04:31:42.681Z,10.07
2023-04-06T04:34:21.964Z,7.97
2023-04-06T04:36:51.812Z,8.73
2023-04-06T04:39:27.592Z,7.60
2023-04-06T04:42:03.401Z,6.93
2023-04-06T04:44:33.851Z,6.97
2023-04-06T04:47:02.798Z,8.07
2023-04-06T04:49:43.068Z,8.07
2023-04-06T04:52:12.791Z,7.17
2023-04-06T04:54:53.012Z,8.23
2023-04-06T04:57:26.611Z,8.57
2023-04-06T04:59:56.581Z,7.97
2023-04-06T05:02:26.326Z,9.70
2023-04-06T05:05:14.671Z,9.13
2023-04-06T05:07:43.488Z,15.43
2023-04-06T05:10:19.125Z,8.10
2023-04-06T05:12:54.649Z,9.83
2023-04-06T05:15:23.168Z,10.10
2023-04-06T05:17:55.933Z,10.20
2023-04-06T05:20:32.735Z,8.90
2023-04-06T05:23:01.647Z,7.47
2023-04-06T05:25:30.460Z,8.17
2023-04-06T05:28:04.307Z,7.07
2023-04-06T05:30:36.512Z,8.93
2023-04-06T05:33:05.008Z,7.47
2023-04-06T05:35:47.673Z,8.30
2023-04-06T05:38:16.061Z,7.93
2023-04-06T05:40:44.259Z,7.53
2023-04-06T05:43:16.565Z,7.33
2023-04-06T05:45:48.552Z,7.90
2023-04-06T05:48:16.696Z,7.93
2023-04-06T05:50:44.784Z,7.30
2023-04-06T05:53:17.193Z,10.53
2023-04-06T05:55:53.359Z,13.07
2023-04-06T05:58:23.155Z,9.57
2023-04-06T06:00:59.457Z,9.40
2023-04-06T06:03:30.595Z,8.43
2023-04-06T06:06:05.021Z,7.90
2023-04-06T06:08:48.597Z,9.40
2023-04-06T06:11:18.918Z,10.60
2023-04-06T06:13:47.137Z,12.00
2023-04-06T06:16:16.220Z,9.77
2023-04-06T06:18:48.300Z,8.90
2023-04-06T06:21:18.226Z,10.57
2023-04-06T06:23:50.272Z,11.90
2023-04-06T06:26:21.779Z,10.90
2023-04-06T06:28:51.310Z,11.20
2023-04-06T06:31:21.495Z,11.40
2023-04-06T06:33:51.381Z,13.23
2023-04-06T06:36:21.424Z,12.77
2023-04-06T06:38:51.481Z,10.40
2023-04-06T06:41:21.758Z,11.23
2023-04-06T06:43:50.233Z,14.40
2023-04-06T06:46:19.768Z,11.77
2023-04-06T06:48:48.001Z,13.23
2023-04-06T06:51:16.393Z,14.43
2023-04-06T06:53:44.524Z,17.30
2023-04-06T06:56:14.651Z,14.33
2023-04-06T06:58:43.673Z,14.73
2023-04-06T07:01:11.822Z,11.80
2023-04-06T07:03:40.152Z,17.37
2023-04-06T07:06:08.526Z,15.27
2023-04-06T07:08:36.700Z,13.17
2023-04-06T07:11:05.030Z,13.77
2023-04-06T07:13:34.612Z,15.03
2023-04-06T07:16:03.850Z,12.93
2023-04-06T07:18:34.092Z,13.83
2023-04-06T07:21:03.763Z,11.60
2023-04-06T07:23:31.912Z,13.13
2023-04-06T07:26:00.068Z,15.87
2023-04-06T07:28:28.267Z,12.43
2023-04-06T07:30:58.518Z,11.60
2023-04-06T07:33:30.789Z,13.67
2023-04-06T07:36:00.345Z,12.77
2023-04-06T07:38:28.696Z,14.70
2023-04-06T07:40:57.954Z,15.83
2023-04-06T07:43:26.652Z,14.43
2023-04-06T07:45:55.643Z,21.33
2023-04-06T07:48:25.506Z,12.40
2023-04-06T07:50:54.093Z,14.23
2023-04-06T07:53:22.460Z,12.93
2023-04-06T07:55:50.709Z,27.80
2023-04-06T07:58:18.768Z,13.10
2023-04-06T08:00:46.868Z,12.43
2023-04-06T08:03:15.154Z,11.27
2023-04-06T08:05:44.706Z,14.03
2023-04-06T08:08:12.956Z,15.97
2023-04-06T08:10:41.078Z,16.07
2023-04-06T08:13:09.886Z,12.40
2023-04-06T08:15:38.015Z,13.10
2023-04-06T08:18:06.729Z,15.53
2023-04-06T08:20:34.843Z,17.23
2023-04-06T08:23:04.370Z,14.33
2023-04-06T08:25:32.689Z,12.97
2023-04-06T08:28:00.816Z,14.87
2023-04-06T08:30:29.040Z,19.30
2023-04-06T08:32:57.343Z,13.87
2023-04-06T08:35:25.633Z,13.73
2023-04-06T08:37:53.823Z,12.70
2023-04-06T08:40:23.468Z,13.87
2023-04-06T08:42:56.418Z,13.60
2023-04-06T08:45:25.044Z,13.37
2023-04-06T08:47:54.265Z,13.57
2023-04-06T08:50:23.228Z,11.67
2023-04-06T08:52:51.613Z,13.83
2023-04-06T08:55:19.921Z,10.47
2023-04-06T08:57:49.672Z,13.87
2023-04-06T09:00:18.642Z,16.57
2023-04-06T09:02:48.229Z,12.97
2023-04-06T09:05:17.270Z,12.20
2023-04-06T09:07:46.649Z,11.20
2023-04-06T09:10:16.384Z,8.57
2023-04-06T09:12:45.199Z,9.97
2023-04-06T09:15:24.408Z,12.70
2023-04-06T09:17:56.943Z,11.23
2023-04-06T09:20:26.889Z,12.80
2023-04-06T09:22:55.239Z,9.23
2023-04-06T09:25:24.845Z,14.37
2023-04-06T09:28:01.425Z,12.63
2023-04-06T09:30:31.629Z,13.13
2023-04-06T09:33:00.542Z,16.57
2023-04-06T09:35:30.931Z,12.53
2023-04-06T09:37:59.159Z,11.83
2023-04-06T09:40:27.305Z,14.37
2023-04-06T09:42:58.430Z,11.03
2023-04-06T09:45:27.787Z,11.87
2023-04-06T09:47:58.012Z,14.60
2023-04-06T09:50:27.857Z,10.33
2023-04-06T09:52:59.486Z,10.40
2023-04-06T09:55:32.671Z,10.17
2023-04-06T09:58:07.042Z,9.63
2023-04-06T10:00:43.533Z,10.87
2023-04-06T10:03:24.301Z,11.13
2023-04-06T10:05:59.438Z,10.67
2023-04-06T10:08:32.537Z,11.80
2023-04-06T10:11:01.840Z,11.87
2023-04-06T10:13:30.096Z,13.37
2023-04-06T10:15:59.508Z,8.90
2023-04-06T10:18:31.077Z,11.03
2023-04-06T10:21:05.493Z,10.93
2023-04-06T10:23:36.827Z,10.43
2023-04-06T10:26:05.453Z,13.33
2023-04-06T10:28:36.651Z,10.90
2023-04-06T10:31:07.718Z,9.30
2023-04-06T10:33:37.526Z,10.70
2023-04-06T10:36:12.694Z,10.60
2023-04-06T10:38:42.151Z,9.57
2023-04-06T10:41:11.948Z,9.57
2023-04-06T10:43:41.561Z,10.90
2023-04-06T10:46:12.678Z,8.50
2023-04-06T10:48:44.512Z,11.23
2023-04-06T10:51:14.415Z,9.60
2023-04-06T10:53:44.845Z,10.50
2023-04-06T10:56:14.358Z,8.63
2023-04-06T10:58:47.541Z,10.37
2023-04-06T11:01:17.183Z,8.07
2023-04-06T11:03:47.441Z,7.87
2023-04-06T11:06:26.342Z,11.27
2023-04-06T11:08:55.129Z,11.43
2023-04-06T11:11:26.780Z,9.10
2023-04-06T11:13:56.512Z,10.07
2023-04-06T11:16:26.006Z,10.57
2023-04-06T11:18:57.666Z,10.23
2023-04-06T11:21:37.633Z,9.43
2023-04-06T11:24:11.031Z,8.43
2023-04-06T11:26:41.292Z,8.93
2023-04-06T11:29:09.845Z,8.80
2023-04-06T11:31:42.542Z,8.47
2023-04-06T11:34:18.262Z,8.70
2023-04-06T11:36:47.742Z,10.20
2023-04-06T11:39:20.530Z,9.00
2023-04-06T11:41:50.226Z,9.33
2023-04-06T11:44:31.111Z,8.23
2023-04-06T11:46:59.681Z,8.37
2023-04-06T11:49:31.422Z,7.30
2023-04-06T11:52:00.314Z,7.80
2023-04-06T11:54:35.887Z,7.70
2023-04-06T11:57:05.003Z,7.63
2023-04-06T11:59:33.299Z,8.13
2023-04-06T12:02:01.544Z,7.97
2023-04-06T12:04:31.350Z,10.07
2023-04-06T12:07:00.032Z,9.33
2023-04-06T12:09:28.179Z,9.37
2023-04-06T12:11:57.018Z,11.03
2023-04-06T12:14:25.440Z,9.70
2023-04-06T12:16:53.602Z,7.77
2023-04-06T12:19:22.059Z,9.67
2023-04-06T12:21:51.796Z,6.40
2023-04-06T12:24:19.933Z,6.93
2023-04-06T12:26:48.401Z,8.37
2023-04-06T12:29:16.708Z,7.47
2023-04-06T12:31:46.134Z,7.43
2023-04-06T12:34:14.528Z,7.20
2023-04-06T12:36:42.641Z,8.37
2023-04-06T12:39:12.131Z,10.10
2023-04-06T12:41:41.519Z,11.60
2023-04-06T12:44:09.688Z,8.47
2023-04-06T12:46:37.864Z,7.83
2023-04-06T12:49:06.032Z,12.30
2023-04-06T12:51:34.075Z,9.60
2023-04-06T12:54:02.190Z,9.63
2023-04-06T12:56:31.947Z,9.47
2023-04-06T12:59:00.272Z,10.00
2023-04-06T13:01:29.049Z,8.70
2023-04-06T13:03:58.224Z,9.70
2023-04-06T13:06:28.608Z,7.10
2023-04-06T13:08:57.371Z,10.80
2023-04-06T13:11:28.194Z,11.50
2023-04-06T13:13:58.070Z,9.73
2023-04-06T13:16:26.380Z,7.67
2023-04-06T13:18:54.456Z,6.50
2023-04-06T13:21:22.800Z,8.90
2023-04-06T13:23:50.938Z,8.13
2023-04-06T13:26:19.091Z,7.23
2023-04-06T13:28:47.277Z,8.27
2023-04-06T13:31:16.746Z,7.87
2023-04-06T13:33:44.843Z,8.07
2023-04-06T13:36:14.626Z,8.97
2023-04-06T13:38:44.115Z,8.77
2023-04-06T13:41:12.337Z,10.97
2023-04-06T13:43:40.475Z,7.70
2023-04-06T13:46:08.588Z,9.23
2023-04-06T13:48:38.061Z,7.90
2023-04-06T13:51:12.913Z,7.30
2023-04-06T13:53:41.915Z,7.33
2023-04-06T13:56:10.528Z,13.63
2023-04-06T13:58:38.606Z,6.60
2023-04-06T14:01:08.206Z,8.37
2023-04-06T14:03:38.463Z,6.53
2023-04-06T14:06:20.903Z,8.80
2023-04-06T14:08:58.446Z,6.63
2023-04-06T14:11:27.151Z,7.20
2023-04-06T14:13:57.825Z,7.47
2023-04-06T14:16:26.473Z,8.48
2023-04-06T14:18:58.699Z,6.67
2023-04-06T14:21:27.386Z,7.10
2023-04-06T14:23:57.986Z,8.87
2023-04-06T14:26:28.491Z,7.20
2023-04-06T14:28:56.819Z,8.63
2023-04-06T14:31:24.793Z,8.23
2023-04-06T14:33:52.830Z,7.13
2023-04-06T14:36:22.135Z,8.73
2023-04-06T14:38:50.472Z,6.60
2023-04-06T14:41:19.002Z,7.07
2023-04-06T14:43:48.094Z,6.07
2023-04-06T14:46:17.016Z,8.40
2023-04-06T14:48:44.913Z,9.70
2023-04-06T14:51:13.136Z,8.90
2023-04-06T14:53:42.403Z,9.07
2023-04-06T14:56:10.466Z,7.13
2023-04-06T14:58:38.632Z,7.77
2023-04-06T15:01:07.459Z,7.67
2023-04-06T15:03:35.830Z,7.97
2023-04-06T15:06:03.870Z,7.47
2023-04-06T15:08:31.898Z,6.67
2023-04-06T15:11:02.622Z,7.80
2023-04-06T15:13:30.826Z,9.40
2023-04-06T15:16:01.267Z,7.90
2023-04-06T15:18:30.391Z,8.53
2023-04-06T15:20:58.437Z,8.57
2023-04-06T15:23:26.385Z,5.93
2023-04-06T15:25:54.502Z,12.50
2023-04-06T15:28:23.978Z,8.20
2023-04-06T15:30:52.093Z,8.13
2023-04-06T15:33:22.743Z,7.80
2023-04-06T15:35:51.151Z,7.23
2023-04-06T15:38:19.186Z,11.10
2023-04-06T15:40:48.958Z,9.10
2023-04-06T15:43:17.719Z,8.10
2023-04-06T15:45:47.235Z,7.77
2023-04-06T15:48:15.451Z,7.57
2023-04-06T15:50:43.388Z,9.90
2023-04-06T15:53:12.659Z,10.03
2023-04-06T15:55:40.680Z,8.10
2023-04-06T15:58:08.652Z,8.43
2023-04-06T16:00:36.714Z,9.47
2023-04-06T16:03:06.532Z,7.40
2023-04-06T16:05:43.861Z,7.87
2023-04-06T16:08:17.090Z,8.77
2023-04-06T16:10:45.076Z,9.27
2023-04-06T16:13:13.094Z,9.13
2023-04-06T16:15:41.203Z,9.37
2023-04-06T16:18:10.616Z,8.13
2023-04-06T16:20:38.563Z,9.50
2023-04-06T16:23:06.547Z,10.23
2023-04-06T16:25:34.553Z,9.93
2023-04-06T16:28:02.766Z,10.93
2023-04-06T16:30:31.300Z,8.93
2023-04-06T16:32:59.380Z,9.70
2023-04-06T16:35:28.877Z,11.70
2023-04-06T16:37:56.914Z,13.80
2023-04-06T16:40:24.923Z,9.80
2023-04-06T16:42:52.937Z,10.50
2023-04-06T16:45:21.430Z,11.97
2023-04-06T16:47:50.583Z,13.87
2023-04-06T16:50:18.894Z,12.50
2023-04-06T16:52:48.160Z,9.87
2023-04-06T16:55:16.144Z,10.20
2023-04-06T16:57:44.057Z,9.50
2023-04-06T17:00:13.225Z,11.73
2023-04-06T17:02:41.455Z,9.50
2023-04-06T17:05:10.283Z,9.73
2023-04-06T17:07:38.229Z,9.30
2023-04-06T17:10:08.384Z,8.70
2023-04-06T17:12:36.374Z,8.00
2023-04-06T17:15:04.455Z,7.13
2023-04-06T17:17:32.817Z,8.20
2023-04-06T17:20:00.885Z,8.43
2023-04-06T17:22:28.788Z,6.90
2023-04-06T17:24:56.844Z,6.90
2023-04-06T17:27:27.793Z,7.77
2023-04-06T17:29:56.233Z,8.43
2023-04-06T17:32:24.321Z,8.33
2023-04-06T17:34:52.310Z,7.90
2023-04-06T17:37:20.383Z,11.47
2023-04-06T17:39:48.309Z,7.93
2023-04-06T17:42:16.361Z,9.30
2023-04-06T17:44:48.725Z,10.30
2023-04-06T17:47:18.475Z,6.17
2023-04-06T17:49:46.531Z,7.57
2023-04-06T17:52:14.535Z,6.93
2023-04-06T17:54:42.520Z,7.97
2023-04-06T17:57:10.643Z,7.20
2023-04-06T17:59:38.803Z,9.93
2023-04-06T18:02:08.957Z,8.40
2023-04-06T18:04:37.980Z,10.73
2023-04-06T18:07:06.529Z,9.83
2023-04-06T18:09:37.232Z,9.40
2023-04-06T18:12:05.461Z,9.50
2023-04-06T18:14:33.432Z,9.67
2023-04-06T18:17:01.393Z,10.37
2023-04-06T18:19:32.295Z,6.87
2023-04-06T18:22:00.386Z,6.37
2023-04-06T18:24:41.203Z,10.33
2023-04-06T18:27:10.292Z,10.50
2023-04-06T18:29:38.421Z,10.47
2023-04-06T18:32:07.081Z,11.70
2023-04-06T18:34:36.571Z,9.87
2023-04-06T18:37:04.545Z,9.57
2023-04-06T18:39:32.712Z,11.93
2023-04-06T18:42:00.815Z,13.27
2023-04-06T18:44:28.835Z,9.57
2023-04-06T18:46:56.812Z,9.23
2023-04-06T18:49:24.992Z,9.77
2023-04-06T18:51:55.695Z,8.23
2023-04-06T18:54:23.662Z,8.50
2023-04-06T18:56:51.722Z,7.70
2023-04-06T18:59:19.765Z,9.13
2023-04-06T19:01:51.082Z,8.60
2023-04-06T19:04:19.464Z,11.17
2023-04-06T19:06:48.040Z,7.97
2023-04-06T19:09:17.439Z,8.87
2023-04-06T19:11:45.704Z,9.83
2023-04-06T19:14:13.703Z,10.20
2023-04-06T19:16:51.727Z,10.63
2023-04-06T19:19:21.104Z,6.73
2023-04-06T19:21:49.641Z,6.80
2023-04-06T19:24:19.079Z,6.23
2023-04-06T19:26:47.239Z,3.77
2023-04-06T19:29:15.339Z,5.33
2023-04-06T19:31:43.414Z,4.70
2023-04-06T19:34:17.205Z,5.07
2023-04-06T19:36:45.336Z,5.03
2023-04-06T19:39:16.444Z,22.90
2023-04-06T19:41:45.794Z,16.00
2023-04-06T19:44:14.026Z,4.53
2023-04-06T19:46:42.569Z,5.17
2023-04-06T19:49:10.948Z,4.87
2023-04-06T19:51:39.192Z,4.80
2023-04-06T19:54:07.922Z,4.33
2023-04-06T19:56:36.028Z,4.13
2023-04-06T19:59:05.341Z,6.00
2023-04-06T20:01:33.499Z,3.50
2023-04-06T20:04:01.767Z,4.73
2023-04-06T20:06:30.970Z,5.70
2023-04-06T20:08:58.910Z,6.10
2023-04-06T20:11:27.249Z,5.53
2023-04-06T20:13:55.232Z,5.03
2023-04-06T20:16:24.719Z,3.53
2023-04-06T20:18:52.665Z,1.90
2023-04-06T20:21:20.786Z,1.90
2023-04-06T20:23:48.839Z,2.37
2023-04-06T20:26:16.872Z,2.10
2023-04-06T20:28:44.912Z,3.00
2023-04-06T20:31:13.070Z,2.23
2023-04-06T20:33:42.522Z,3.07
2023-04-06T20:36:11.221Z,1.97
2023-04-06T20:38:40.453Z,4.57
2023-04-06T20:41:09.207Z,2.80
2023-04-06T20:43:37.551Z,5.80
2023-04-06T20:46:07.420Z,3.90
2023-04-06T20:48:36.288Z,3.33
2023-04-06T20:51:06.252Z,5.37
2023-04-06T20:53:34.382Z,4.10
2023-04-06T20:56:03.132Z,4.77
2023-04-06T20:58:31.045Z,5.37
2023-04-06T21:00:59.037Z,3.70
2023-04-06T21:03:27.118Z,3.80
2023-04-06T21:05:57.258Z,4.90
2023-04-06T21:08:26.590Z,3.77
2023-04-06T21:10:54.456Z,4.40
2023-04-06T21:13:22.390Z,6.00
2023-04-06T21:15:51.530Z,6.20
2023-04-06T21:18:19.641Z,7.10
2023-04-06T21:20:47.658Z,5.00
2023-04-06T21:23:16.219Z,5.20
2023-04-06T21:25:45.501Z,5.63
2023-04-06T21:28:13.462Z,5.47
2023-04-06T21:30:42.345Z,5.93
2023-04-06T21:33:11.463Z,6.07
2023-04-06T21:35:40.665Z,5.30
2023-04-06T21:38:09.329Z,6.23
2023-04-06T21:40:37.732Z,6.23
2023-04-06T21:43:06.990Z,6.13
2023-04-06T21:45:34.975Z,6.37
2023-04-06T21:48:03.026Z,6.40
2023-04-06T21:50:30.967Z,6.70
2023-04-06T21:52:58.890Z,6.97
2023-04-06T21:55:26.830Z,4.73
2023-04-06T21:57:54.763Z,5.53
2023-04-06T22:00:23.971Z,6.90
2023-04-06T22:02:52.293Z,6.43
2023-04-06T22:05:20.642Z,7.37
2023-04-06T22:07:48.567Z,6.90
2023-04-06T22:10:16.546Z,6.40
2023-04-06T22:12:44.416Z,6.67
2023-04-06T22:15:13.981Z,6.70
2023-04-06T22:17:43.344Z,9.23
2023-04-06T22:20:11.632Z,9.20
2023-04-06T22:22:40.381Z,7.20
2023-04-06T22:25:09.237Z,7.83
2023-04-06T22:27:37.283Z,6.67
2023-04-06T22:30:05.794Z,8.73
2023-04-06T22:32:33.736Z,7.50
2023-04-06T22:35:03.023Z,9.50
2023-04-06T22:37:30.974Z,8.23
2023-04-06T22:39:58.845Z,8.13
2023-04-06T22:42:27.726Z,7.67
2023-04-06T22:44:56.017Z,10.13
2023-04-06T22:47:24.060Z,9.43
2023-04-06T22:49:52.305Z,10.50
2023-04-06T22:52:21.590Z,9.77
2023-04-06T22:54:49.572Z,8.27
2023-04-06T22:57:17.539Z,8.57
2023-04-06T22:59:45.493Z,8.70
2023-04-06T23:02:14.197Z,8.77
2023-04-06T23:04:42.261Z,7.87
2023-04-06T23:07:11.552Z,10.40
2023-04-06T23:09:41.517Z,9.00
2023-04-06T23:12:09.790Z,10.03
2023-04-06T23:14:37.889Z,9.07
2023-04-06T23:17:06.065Z,7.93
2023-04-06T23:19:33.987Z,8.07
2023-04-06T23:22:02.266Z,7.93
2023-04-06T23:24:30.363Z,8.93
2023-04-06T23:26:59.683Z,6.87
2023-04-06T23:29:27.571Z,9.20
2023-04-06T23:31:55.571Z,7.87
2023-04-06T23:34:23.594Z,9.20
2023-04-06T23:36:51.636Z,7.80
2023-04-06T23:39:19.510Z,11.33
2023-04-06T23:41:47.410Z,9.77
2023-04-06T23:44:16.618Z,7.70
2023-04-06T23:46:44.730Z,6.90
2023-04-06T23:49:12.753Z,8.23
2023-04-06T23:51:40.914Z,8.03
2023-04-06T23:54:09.550Z,9.00
2023-04-06T23:56:37.506Z,7.47
2023-04-06T23:59:05.395Z,8.87
